Time;durP1;ratioP1;P1;durP2;ratioP2;P2;SDS_P1;SDS_P2;PMS_P1;PMS_P2;Temp;Humidity;BMP_temperature;BMP_pressure;BME280_temperature;BME280_humidity;BME280_pressure;Samples;Min_cycle;Max_cycle;Signal;HPM_P1;HPM_P2
2023/10/08 00:01:06;;;;;;;8.97;3.10;;;;;;;11.80;73.00;149081.44;5086817;28;20299;-60
2023/10/08 00:04:00;;;;;;;9.03;2.60;;;;;;;11.78;73.33;149075.16;5087379;28;20209;-59
2023/10/08 00:06:52;;;;;;;7.37;2.73;;;;;;;11.75;70.42;149067.69;5087972;28;20197;-60
2023/10/08 00:09:44;;;;;;;9.60;2.47;;;;;;;11.83;70.33;149087.63;5087749;28;20277;-62
2023/10/08 00:12:37;;;;;;;6.80;2.80;;;;;;;11.79;71.23;149078.94;5087653;28;20577;-59
2023/10/08 00:15:32;;;;;;;8.33;3.03;;;;;;;11.73;71.13;149063.97;5087105;28;21088;-61
2023/10/08 00:18:25;;;;;;;7.43;3.20;;;;;;;11.75;70.06;149067.69;5086320;28;20348;-62
2023/10/08 00:21:17;;;;;;;8.03;2.63;;;;;;;11.75;69.67;149067.69;5087196;28;21958;-62
2023/10/08 00:24:09;;;;;;;5.87;2.60;;;;;;;11.78;68.07;149075.16;5087328;28;20208;-61
2023/10/08 00:27:03;;;;;;;6.57;2.67;;;;;;;11.82;67.92;149085.16;5088018;28;20208;-59
2023/10/08 00:29:56;;;;;;;6.33;2.50;;;;;;;11.82;69.92;149086.41;5084663;28;20228;-60
2023/10/08 00:32:48;;;;;;;8.37;2.87;;;;;;;11.83;69.92;149087.63;5087833;28;20311;-60
2023/10/08 00:35:42;;;;;;;8.13;2.60;;;;;;;11.94;72.49;149113.84;5086393;28;20205;-60
2023/10/08 00:38:35;;;;;;;8.50;2.50;;;;;;;11.90;70.57;149103.88;5087575;28;20205;-60
2023/10/08 00:41:30;;;;;;;7.77;2.47;;;;;;;12.09;68.14;149150.03;5086480;28;20245;-60
2023/10/08 00:44:29;;;;;;;8.80;2.20;;;;;;;11.92;69.71;149110.09;5087028;28;20208;-61
2023/10/08 00:47:26;;;;;;;5.83;2.60;;;;;;;11.88;70.38;149100.09;5072837;28;20593;-59
2023/10/08 00:50:21;;;;;;;7.90;2.57;;;;;;;11.88;69.80;149098.88;5097297;28;20270;-60
2023/10/08 00:53:21;;;;;;;6.83;2.67;;;;;;;11.88;70.81;149098.88;5099065;27;20232;-60
2023/10/08 00:56:14;;;;;;;10.50;2.83;;;;;;;11.91;70.15;149106.34;5096833;28;20422;-60
2023/10/08 00:59:06;;;;;;;7.70;2.43;;;;;;;11.93;72.36;149112.56;5098862;27;20370;-60
2023/10/08 01:02:05;;;;;;;7.60;2.90;;;;;;;11.86;73.48;149093.91;5101405;27;20243;-59
2023/10/08 01:04:57;;;;;;;7.93;2.60;;;;;;;11.84;75.54;149090.13;5106538;27;20243;-59
2023/10/08 01:07:51;;;;;;;6.60;3.10;;;;;;;11.84;74.85;149090.13;5106794;27;20418;-59
2023/10/08 01:10:20;;;;;;;7.23;2.63;;;;;;;11.84;73.83;149088.91;5101905;28;20216;-58
2023/10/08 01:13:03;;;;;;;4.80;2.40;;;;;;;11.88;75.00;149100.09;5082427;27;20228;-59
2023/10/08 01:15:35;;;;;;;6.17;2.43;;;;;;;11.90;76.20;149103.88;5104852;27;20256;-59
2023/10/08 01:18:04;;;;;;;8.47;2.80;;;;;;;11.81;75.81;149082.66;5104168;27;20236;-58
2023/10/08 01:20:36;;;;;;;6.33;2.80;;;;;;;11.84;75.55;149088.91;5102183;28;20221;-59
2023/10/08 01:23:09;;;;;;;7.30;2.70;;;;;;;11.87;77.17;149097.59;5078429;28;20316;-58
2023/10/08 01:25:37;;;;;;;6.53;3.00;;;;;;;11.95;72.03;149117.56;5096290;28;20229;-59
2023/10/08 01:28:14;;;;;;;6.90;2.73;;;;;;;11.86;73.58;149093.91;5081025;28;20261;-59
2023/10/08 01:30:42;;;;;;;5.33;2.80;;;;;;;11.91;76.59;149107.59;5075410;28;20226;-59
2023/10/08 01:33:13;;;;;;;7.23;2.60;;;;;;;11.91;75.30;149107.59;5078260;28;20244;-59
2023/10/08 01:35:40;;;;;;;6.43;2.73;;;;;;;11.88;73.85;149098.88;5076096;28;20225;-59
2023/10/08 01:38:13;;;;;;;8.13;3.23;;;;;;;11.84;75.06;149090.13;5080961;28;20236;-59
2023/10/08 01:40:41;;;;;;;9.97;2.20;;;;;;;11.82;76.70;149085.16;5093924;28;20219;-59
2023/10/08 01:43:08;;;;;;;12.07;3.27;;;;;;;11.76;76.32;149070.19;5083244;28;21102;-59
2023/10/08 01:45:40;;;;;;;7.83;2.60;;;;;;;11.71;77.01;149057.72;5099159;28;20234;-59
2023/10/08 01:48:09;;;;;;;6.67;3.00;;;;;;;11.71;75.89;149059.00;5076148;28;20316;-58
2023/10/08 01:50:36;;;;;;;9.53;2.63;;;;;;;11.59;76.82;149030.34;5079391;28;20305;-59
2023/10/08 01:53:05;;;;;;;7.03;2.67;;;;;;;11.63;77.58;149040.31;5100462;28;20263;-58
2023/10/08 01:56:04;;;;;;;6.20;2.70;;;;;;;11.59;76.61;149029.06;5101573;28;21025;-58
2023/10/08 01:58:31;;;;;;;8.87;3.00;;;;;;;11.66;79.01;149047.75;5077447;28;20222;-59
2023/10/08 02:00:59;;;;;;;8.07;2.63;;;;;;;11.61;79.00;149034.06;5078738;28;20233;-59
2023/10/08 02:03:28;;;;;;;6.70;2.53;;;;;;;11.63;80.38;149040.31;5092318;28;20288;-60
2023/10/08 02:06:08;;;;;;;6.73;2.90;;;;;;;11.62;78.65;149036.56;5045101;28;20244;-60
2023/10/08 02:08:36;;;;;;;8.57;2.90;;;;;;;11.54;79.29;149017.88;5017072;28;20229;-59
2023/10/08 02:11:04;;;;;;;7.63;2.70;;;;;;;11.69;76.74;149052.75;5079220;28;20258;-59
2023/10/08 02:13:31;;;;;;;5.40;2.53;;;;;;;11.68;79.73;149051.50;5098407;28;20251;-59
2023/10/08 02:15:58;;;;;;;6.13;2.10;;;;;;;11.68;80.47;149051.50;5083329;28;20635;-59
2023/10/08 02:18:25;;;;;;;6.20;2.60;;;;;;;11.59;79.97;149030.34;5108003;28;20627;-59
2023/10/08 02:20:52;;;;;;;7.23;2.60;;;;;;;11.64;78.37;149041.53;5096898;28;20231;-59
2023/10/08 02:23:19;;;;;;;7.93;3.03;;;;;;;11.75;76.44;149067.69;5080575;28;20261;-59
2023/10/08 02:25:45;;;;;;;6.73;2.93;;;;;;;11.65;78.09;149045.31;5078185;27;20251;-58
2023/10/08 02:28:15;;;;;;;5.90;2.60;;;;;;;11.57;79.80;149025.34;5097242;28;21044;-59
2023/10/08 02:30:42;;;;;;;5.47;2.37;;;;;;;11.48;80.15;149002.94;5092150;28;20852;-59
2023/10/08 02:33:13;;;;;;;8.23;2.67;;;;;;;11.42;81.54;148987.97;5090035;27;20227;-59
2023/10/08 02:35:43;;;;;;;8.27;2.67;;;;;;;11.34;81.30;148970.53;5101864;27;20240;-59
2023/10/08 02:38:11;;;;;;;7.03;2.97;;;;;;;11.35;81.57;148973.03;5088366;28;20256;-59
2023/10/08 02:40:44;;;;;;;11.17;3.37;;;;;;;11.29;81.04;148958.06;5088178;28;20271;-59
2023/10/08 02:43:11;;;;;;;7.60;2.87;;;;;;;11.21;81.48;148939.34;5106368;27;20315;-59
2023/10/08 02:45:40;;;;;;;5.93;2.77;;;;;;;11.18;80.81;148931.88;5085784;27;20224;-59
2023/10/08 02:48:11;;;;;;;5.20;2.70;;;;;;;11.22;82.65;148940.63;5104339;27;20705;-59
2023/10/08 02:50:40;;;;;;;8.43;3.37;;;;;;;11.18;84.82;148930.66;5103338;28;20229;-59
2023/10/08 02:53:10;;;;;;;6.73;2.63;;;;;;;11.17;83.46;148929.38;5089400;27;20231;-59
2023/10/08 02:55:42;;;;;;;5.60;2.60;;;;;;;11.10;84.31;148911.97;5085555;28;20248;-59
2023/10/08 02:58:11;;;;;;;6.53;2.67;;;;;;;11.11;85.44;148914.47;5088518;27;20325;-60
2023/10/08 03:00:40;;;;;;;7.23;3.13;;;;;;;11.05;84.60;148900.75;5102186;28;20317;-59
2023/10/08 03:03:15;;;;;;;8.37;2.83;;;;;;;11.00;85.01;148888.28;5105369;27;20699;-60
2023/10/08 03:05:43;;;;;;;6.70;3.27;;;;;;;11.00;84.70;148887.06;5085358;28;20223;-60
2023/10/08 03:08:11;;;;;;;6.20;2.77;;;;;;;10.97;85.02;148879.59;5105834;28;20229;-59
2023/10/08 03:10:38;;;;;;;6.03;2.60;;;;;;;10.95;83.87;148874.59;5103247;27;20287;-59
2023/10/08 03:13:05;;;;;;;5.67;2.70;;;;;;;10.95;84.11;148874.59;5106331;27;20901;-60
2023/10/08 03:15:46;;;;;;;7.83;2.90;;;;;;;10.98;84.20;148883.31;5085389;27;20226;-59
2023/10/08 03:18:15;;;;;;;7.80;2.50;;;;;;;11.02;83.19;148892.03;5104243;28;20256;-60
2023/10/08 03:20:45;;;;;;;6.00;2.63;;;;;;;10.98;84.55;148883.31;5086091;27;20230;-59
2023/10/08 03:23:23;;;;;;;6.37;2.90;;;;;;;10.97;83.04;148880.81;5109539;27;20324;-59
2023/10/08 03:25:57;;;;;;;6.37;2.60;;;;;;;11.00;82.10;148888.28;5087764;28;20229;-59
2023/10/08 03:28:24;;;;;;;6.73;2.60;;;;;;;10.99;82.79;148885.78;5088092;28;20232;-59
2023/10/08 03:33:26;;;;;;;6.93;2.97;;;;;;;11.05;80.06;148900.75;5003950;28;20221;-55
2023/10/08 03:35:55;;;;;;;5.67;2.77;;;;;;;11.12;81.25;148915.69;5004052;28;20236;-54
2023/10/08 03:38:28;;;;;;;9.30;2.97;;;;;;;11.19;81.82;148933.13;5006150;28;20234;-53
2023/10/08 03:41:03;;;;;;;5.37;2.43;;;;;;;11.34;79.09;148970.53;5003502;28;20228;-54
2023/10/08 03:43:42;;;;;;;10.73;3.23;;;;;;;11.35;78.98;148973.03;5002937;28;20635;-54
2023/10/08 03:46:15;;;;;;;6.13;2.93;;;;;;;11.29;79.70;148958.06;5006001;28;20338;-55
2023/10/08 03:48:45;;;;;;;8.03;2.83;;;;;;;11.42;78.77;148987.97;5004009;28;20229;-53
2023/10/08 03:51:12;;;;;;;7.80;2.50;;;;;;;11.44;79.70;148994.19;5005266;28;20224;-54
2023/10/08 03:53:57;;;;;;;8.90;2.90;;;;;;;11.41;79.69;148985.47;5003620;28;20232;-55
2023/10/08 03:56:25;;;;;;;5.10;2.63;;;;;;;11.53;80.59;149015.38;5006679;28;20229;-54
2023/10/08 03:58:54;;;;;;;9.20;2.63;;;;;;;11.42;81.46;148987.97;5004012;28;20232;-53
2023/10/08 04:01:24;;;;;;;10.13;2.97;;;;;;;11.44;78.08;148994.19;5005802;28;20236;-55
2023/10/08 04:04:01;;;;;;;8.20;2.73;;;;;;;11.73;78.10;149062.72;5003478;28;20339;-53
2023/10/08 04:06:37;;;;;;;5.83;2.20;;;;;;;11.70;78.97;149055.22;5003361;28;20231;-54
2023/10/08 04:09:23;;;;;;;4.40;2.10;;;;;;;11.71;76.66;149059.00;5005589;28;20233;-53
2023/10/08 04:11:55;;;;;;;6.37;2.57;;;;;;;11.74;77.91;149065.19;5002652;28;20287;-53
2023/10/08 04:14:23;;;;;;;7.07;2.80;;;;;;;11.71;78.52;149059.00;5006036;28;20569;-54
2023/10/08 04:16:52;;;;;;;8.23;2.73;;;;;;;11.70;79.48;149055.22;5003057;28;20240;-53
2023/10/08 04:19:25;;;;;;;6.23;2.60;;;;;;;11.76;78.89;149070.19;5005821;28;20236;-54
2023/10/08 04:21:53;;;;;;;11.67;2.60;;;;;;;11.82;79.94;149085.16;5003170;28;20283;-54
2023/10/08 04:24:28;;;;;;;9.43;2.50;;;;;;;11.77;82.01;149073.94;5005973;28;20238;-53
2023/10/08 04:26:57;;;;;;;5.33;2.30;;;;;;;11.69;80.75;149054.00;5003170;28;20295;-53
2023/10/08 04:29:24;;;;;;;6.93;2.67;;;;;;;11.62;80.70;149036.56;5005702;28;20327;-53
2023/10/08 04:32:01;;;;;;;6.03;2.60;;;;;;;11.63;82.06;149039.03;5002852;28;20237;-53
2023/10/08 04:34:30;;;;;;;7.67;3.00;;;;;;;11.63;83.80;149039.03;5002960;28;20741;-55
2023/10/08 04:37:00;;;;;;;7.70;2.47;;;;;;;11.76;82.22;149071.47;5005847;28;20264;-55
2023/10/08 04:39:32;;;;;;;6.33;2.40;;;;;;;12.01;80.44;149131.34;5002133;28;20247;-53
2023/10/08 04:42:00;;;;;;;8.00;2.60;;;;;;;12.02;80.21;149132.56;5003674;28;20243;-54
2023/10/08 04:44:31;;;;;;;7.63;2.50;;;;;;;12.19;80.59;149174.97;5002971;28;20599;-55
2023/10/08 04:47:04;;;;;;;7.40;2.80;;;;;;;12.23;80.29;149184.94;5004656;28;20332;-55
2023/10/08 04:49:34;;;;;;;5.67;2.60;;;;;;;12.39;79.11;149222.34;5002439;28;20637;-54
2023/10/08 04:52:08;;;;;;;7.27;2.17;;;;;;;12.26;78.09;149191.16;5004957;28;20250;-55
2023/10/08 04:54:40;;;;;;;6.40;2.50;;;;;;;12.12;78.26;149156.28;5002073;28;20654;-55
2023/10/08 04:57:14;;;;;;;5.90;2.27;;;;;;;12.09;79.34;149151.28;4995206;28;20228;-55
2023/10/08 04:59:43;;;;;;;7.63;2.20;;;;;;;12.28;77.95;149194.91;5001833;28;20262;-55
2023/10/08 05:02:19;;;;;;;5.93;2.63;;;;;;;12.14;78.02;149162.50;5005310;28;20233;-54
2023/10/08 05:05:06;;;;;;;7.47;3.07;;;;;;;12.18;78.10;149172.47;5002237;28;20239;-55
2023/10/08 05:13:16;;;;;;;5.27;2.67;;;;;;;11.95;87.25;149117.56;5046775;27;21150;-52
2023/10/08 05:16:01;;;;;;;5.70;2.80;;;;;;;11.85;85.96;149091.41;5038405;28;20562;-52
2023/10/08 05:18:54;;;;;;;5.03;2.67;;;;;;;11.73;85.51;149063.97;5044479;28;20302;-52
2023/10/08 05:21:25;;;;;;;8.83;2.73;;;;;;;11.84;88.00;149090.13;5032735;28;20739;-55
2023/10/08 05:24:08;;;;;;;5.93;2.60;;;;;;;11.76;89.63;149070.19;5009547;28;20839;-52
2023/10/08 05:26:44;;;;;;;8.50;2.87;;;;;;;11.66;88.37;149046.53;5005652;28;20241;-53
2023/10/08 05:32:30;;;;;;;6.57;2.27;;;;;;;11.67;90.01;149050.25;4987957;28;20299;-54
2023/10/08 05:35:30;;;;;;;6.07;2.47;;;;;;;11.63;90.44;149039.03;5018476;28;20746;-54
2023/10/08 05:37:42;;;;;;;7.97;2.50;;;;;;;11.66;90.76;149046.53;5025544;28;20235;-54
2023/10/08 05:40:21;;;;;;;8.57;2.60;;;;;;;11.74;94.88;149066.47;5025638;28;20228;-53
2023/10/08 05:42:49;;;;;;;5.23;2.40;;;;;;;11.69;94.33;149052.75;5027617;28;20725;-54
2023/10/08 05:45:29;;;;;;;7.10;2.33;;;;;;;11.63;93.58;149040.31;5027211;28;20228;-52
2023/10/08 05:48:15;;;;;;;6.67;2.60;;;;;;;11.73;94.22;149063.97;5013380;28;20282;-52
2023/10/08 05:50:54;;;;;;;5.33;2.40;;;;;;;11.74;94.16;149065.19;5003850;28;20228;-54
2023/10/08 05:53:43;;;;;;;7.07;2.67;;;;;;;11.86;95.73;149095.13;5008056;28;20320;-55
2023/10/08 05:56:27;;;;;;;6.43;2.83;;;;;;;11.95;92.52;149116.34;5005648;28;20234;-54
2023/10/08 05:59:14;;;;;;;5.63;2.50;;;;;;;11.99;93.00;149126.31;5005185;28;20283;-55
2023/10/08 06:01:42;;;;;;;8.43;2.43;;;;;;;12.03;92.58;149136.34;5021671;28;20728;-52
2023/10/08 06:04:42;;;;;;;5.87;2.13;;;;;;;11.99;92.75;149126.31;5026333;28;20240;-55
2023/10/08 06:07:12;;;;;;;5.50;2.60;;;;;;;11.96;92.21;149120.06;5024098;28;20223;-53
2023/10/08 06:09:40;;;;;;;6.77;2.43;;;;;;;12.09;92.46;149150.03;5027020;28;20616;-53
2023/10/08 06:12:10;;;;;;;4.37;2.53;;;;;;;12.10;92.52;149153.78;5030641;28;20723;-54
2023/10/08 06:14:52;;;;;;;8.00;2.37;;;;;;;12.17;93.50;149168.75;5023623;28;20291;-55
2023/10/08 06:17:34;;;;;;;10.67;2.80;;;;;;;12.17;93.50;149168.75;5028292;28;20227;-53
2023/10/08 06:20:09;;;;;;;6.33;2.53;;;;;;;12.20;92.93;149177.44;5022733;28;20229;-55
2023/10/08 06:22:36;;;;;;;5.93;2.13;;;;;;;12.27;92.88;149192.41;5022899;28;20586;-52
2023/10/08 06:25:22;;;;;;;4.20;2.10;;;;;;;12.34;93.09;149209.88;5016658;28;20252;-54
2023/10/08 06:27:53;;;;;;;7.57;2.60;;;;;;;12.49;94.13;149247.28;5012414;28;20229;-52
2023/10/08 06:30:21;;;;;;;3.97;2.20;;;;;;;12.57;92.43;149265.97;5012615;28;20228;-52
2023/10/08 06:32:50;;;;;;;5.63;2.67;;;;;;;12.65;92.34;149284.69;5010906;28;20237;-54
2023/10/08 06:35:18;;;;;;;6.73;2.23;;;;;;;12.68;92.83;149292.19;5015432;28;20999;-53
2023/10/08 06:37:45;;;;;;;4.70;2.00;;;;;;;12.72;92.56;149300.88;5011612;28;20244;-52
2023/10/08 06:40:40;;;;;;;9.07;2.50;;;;;;;12.76;92.89;149310.88;5015879;28;20230;-52
2023/10/08 06:43:03;;;;;;;6.97;2.10;;;;;;;12.83;93.41;149328.34;5009865;28;20224;-54
2023/10/08 06:45:32;;;;;;;7.53;2.40;;;;;;;12.89;93.31;149342.03;5016248;28;20304;-54
2023/10/08 06:48:06;;;;;;;7.83;2.40;;;;;;;13.11;90.02;149396.91;5011739;28;20589;-54
2023/10/08 06:50:35;;;;;;;9.60;2.50;;;;;;;13.18;90.51;149411.88;5008837;28;20255;-53
2023/10/08 06:53:07;;;;;;;4.40;2.27;;;;;;;13.31;88.50;149444.34;5014806;28;20268;-54
2023/10/08 06:55:35;;;;;;;7.60;2.23;;;;;;;13.40;88.17;149466.78;5012413;28;20241;-55
2023/10/08 06:58:05;;;;;;;9.77;2.40;;;;;;;13.47;90.38;149481.81;5014463;28;20232;-54
2023/10/08 07:00:46;;;;;;;6.30;2.60;;;;;;;13.50;90.89;149489.31;5009260;28;20229;-54
2023/10/08 07:03:15;;;;;;;6.57;2.40;;;;;;;13.46;91.59;149479.31;5005857;28;20234;-53
2023/10/08 07:05:44;;;;;;;6.17;2.40;;;;;;;13.39;93.76;149464.28;5007715;28;20223;-54
2023/10/08 07:08:14;;;;;;;8.73;2.83;;;;;;;13.38;94.85;149460.53;5013545;28;20221;-54
2023/10/08 07:10:46;;;;;;;4.20;2.20;;;;;;;13.44;92.87;149475.56;5013066;28;20229;-52
2023/10/08 07:13:17;;;;;;;9.00;2.53;;;;;;;13.46;92.71;149480.53;5008494;28;20249;-53
2023/10/08 07:15:44;;;;;;;8.43;2.43;;;;;;;13.48;93.05;149485.53;5009424;28;20685;-55
2023/10/08 07:18:13;;;;;;;8.83;3.23;;;;;;;13.49;92.80;149488.03;5009508;28;20788;-53
2023/10/08 07:20:53;;;;;;;9.07;3.00;;;;;;;13.52;93.54;149495.53;4998648;28;20229;-55
2023/10/08 07:23:24;;;;;;;5.00;2.53;;;;;;;13.52;94.72;149495.53;4988704;28;20250;-53
2023/10/08 07:25:58;;;;;;;6.80;3.07;;;;;;;13.57;95.11;149506.78;4985928;28;20270;-54
2023/10/08 07:28:26;;;;;;;6.13;2.60;;;;;;;13.52;95.86;149494.28;4990502;28;20661;-54
2023/10/08 07:30:52;;;;;;;8.37;2.63;;;;;;;13.48;96.84;149485.53;4990705;28;20230;-52
2023/10/08 07:33:19;;;;;;;7.00;2.83;;;;;;;13.54;96.82;149499.28;4998330;28;20238;-54
2023/10/08 07:35:54;;;;;;;5.50;2.90;;;;;;;13.58;96.75;149509.28;4990864;28;20223;-52
2023/10/08 07:38:22;;;;;;;5.33;2.47;;;;;;;13.61;96.55;149515.50;4992871;28;20308;-53
2023/10/08 07:40:49;;;;;;;8.47;3.30;;;;;;;13.62;97.88;149519.25;4984862;28;20232;-55
2023/10/08 07:43:20;;;;;;;6.93;2.70;;;;;;;13.65;96.82;149526.75;4983576;28;20234;-55
2023/10/08 07:45:47;;;;;;;8.03;2.80;;;;;;;13.69;96.65;149535.47;4988868;28;22716;-55
2023/10/08 07:48:16;;;;;;;6.90;3.53;;;;;;;13.65;97.22;149526.75;4966927;28;20250;-57
2023/10/08 07:50:45;;;;;;;7.43;3.30;;;;;;;13.67;97.69;149530.47;4975635;28;20642;-56
2023/10/08 07:53:18;;;;;;;7.93;4.13;;;;;;;13.64;97.12;149524.25;4990441;28;20648;-58
2023/10/08 07:55:56;;;;;;;11.83;4.73;;;;;;;13.67;92.90;149530.47;4952732;28;20247;-58
2023/10/08 07:58:24;;;;;;;7.43;4.27;;;;;;;13.67;89.86;149530.47;4997399;28;20252;-57
2023/10/08 08:00:54;;;;;;;9.60;4.07;;;;;;;13.70;84.68;149539.22;4980219;28;20241;-57
2023/10/08 08:03:22;;;;;;;10.23;4.00;;;;;;;13.62;81.19;149519.25;4997138;28;20230;-57
2023/10/08 08:06:00;;;;;;;10.17;4.60;;;;;;;13.54;81.95;149500.50;4961993;28;20234;-57
2023/10/08 08:08:38;;;;;;;12.07;3.73;;;;;;;13.48;86.19;149485.53;4973625;28;20311;-57
2023/10/08 08:11:07;;;;;;;16.27;4.27;;;;;;;13.40;86.69;149466.78;4991873;28;20238;-56
2023/10/08 08:13:34;;;;;;;10.03;4.60;;;;;;;13.47;88.67;149481.81;5002558;28;20242;-55
2023/10/08 08:16:09;;;;;;;12.80;4.00;;;;;;;13.61;86.63;149516.75;4985153;28;20236;-56
2023/10/08 08:18:38;;;;;;;6.50;3.50;;;;;;;13.89;81.35;149584.09;4969626;28;20237;-54
2023/10/08 08:21:05;;;;;;;8.43;3.50;;;;;;;14.10;82.22;149635.31;5002087;28;20245;-55
2023/10/08 08:23:32;;;;;;;9.00;3.63;;;;;;;14.36;81.59;149697.69;5002737;28;20233;-56
2023/10/08 08:26:26;;;;;;;10.57;4.47;;;;;;;14.51;78.54;149732.66;5003019;28;20247;-55
2023/10/08 08:28:54;;;;;;;9.87;3.73;;;;;;;14.61;76.10;149758.91;5002079;28;20243;-56
2023/10/08 08:31:21;;;;;;;7.97;3.93;;;;;;;14.75;76.70;149791.41;5003881;28;20689;-55
2023/10/08 08:33:53;;;;;;;6.00;3.23;;;;;;;15.02;75.85;149856.31;5005701;28;20253;-57
2023/10/08 08:36:21;;;;;;;10.37;3.67;;;;;;;15.20;74.66;149901.28;5003957;28;20234;-56
2023/10/08 08:38:48;;;;;;;8.97;4.03;;;;;;;15.33;75.34;149931.28;5001515;28;20705;-57
2023/10/08 08:41:18;;;;;;;9.07;3.83;;;;;;;15.47;76.52;149966.25;5004180;28;20239;-56
2023/10/08 08:43:48;;;;;;;10.53;3.83;;;;;;;15.67;74.29;150013.72;5000182;28;20255;-56
2023/10/08 08:46:15;;;;;;;9.17;4.07;;;;;;;15.77;72.94;150038.72;5005490;28;20596;-54
2023/10/08 08:48:44;;;;;;;8.93;3.97;;;;;;;15.88;72.98;150063.78;5001515;28;20260;-55
2023/10/08 08:51:11;;;;;;;8.90;4.00;;;;;;;15.97;71.37;150086.22;5003048;28;20242;-56
2023/10/08 08:53:39;;;;;;;7.87;3.83;;;;;;;16.14;74.08;150127.50;4999947;28;20235;-56
2023/10/08 08:56:09;;;;;;;8.33;4.17;;;;;;;16.18;73.02;150136.22;5006306;28;20692;-56
2023/10/08 08:58:38;;;;;;;6.93;3.23;;;;;;;16.29;74.28;150162.50;4998932;28;20607;-56
2023/10/08 09:01:09;;;;;;;6.90;3.47;;;;;;;16.21;71.37;150143.72;5006144;28;20243;-56
2023/10/08 09:03:37;;;;;;;7.73;3.80;;;;;;;16.43;71.00;150196.22;5002518;28;20234;-55
2023/10/08 09:06:04;;;;;;;7.93;3.30;;;;;;;16.45;70.86;150201.22;5006887;28;20232;-55
2023/10/08 09:08:35;;;;;;;8.60;3.80;;;;;;;16.49;71.45;150212.44;5001896;28;20233;-55
2023/10/08 09:11:04;;;;;;;8.80;3.57;;;;;;;16.60;70.27;150237.44;5006132;28;20237;-56
2023/10/08 09:13:32;;;;;;;5.97;3.40;;;;;;;16.70;70.34;150261.22;5002081;28;20590;-54
2023/10/08 09:16:04;;;;;;;6.43;3.40;;;;;;;16.75;69.61;150273.75;5003046;28;20240;-55
2023/10/08 09:18:32;;;;;;;8.37;3.40;;;;;;;16.80;71.07;150286.25;5000379;28;20240;-55
2023/10/08 09:21:10;;;;;;;6.50;3.17;;;;;;;16.82;73.54;150291.25;5003217;28;20307;-57
2023/10/08 09:23:43;;;;;;;8.50;3.47;;;;;;;16.90;74.24;150309.97;5004707;28;20239;-57
2023/10/08 09:26:09;;;;;;;9.17;3.30;;;;;;;16.95;75.00;150322.47;5005747;28;20227;-56
2023/10/08 09:28:38;;;;;;;6.17;3.10;;;;;;;17.07;75.52;150351.25;5000789;28;20294;-57
2023/10/08 09:31:06;;;;;;;8.27;2.97;;;;;;;17.16;76.97;150372.56;5002888;28;20320;-56
2023/10/08 09:33:33;;;;;;;5.03;2.60;;;;;;;17.32;76.78;150412.56;5007458;28;20228;-56
2023/10/08 09:36:04;;;;;;;6.13;3.00;;;;;;;17.46;75.24;150445.09;5006405;28;20231;-55
2023/10/08 09:38:31;;;;;;;9.47;3.00;;;;;;;17.53;72.46;150463.84;4999363;28;20320;-57
2023/10/08 09:41:02;;;;;;;7.90;3.27;;;;;;;17.68;71.81;150498.88;5006215;28;20237;-56
2023/10/08 09:43:29;;;;;;;7.40;3.27;;;;;;;17.83;71.59;150536.41;5001155;28;20593;-56
2023/10/08 09:46:01;;;;;;;8.20;2.90;;;;;;;18.01;70.04;150579.00;5002124;28;20701;-55
2023/10/08 09:48:31;;;;;;;8.00;3.30;;;;;;;18.20;68.58;150625.28;4999992;28;20236;-57
2023/10/08 09:50:59;;;;;;;7.70;2.80;;;;;;;18.39;66.81;150671.56;5003149;28;20235;-56
2023/10/08 09:53:39;;;;;;;7.40;3.20;;;;;;;18.56;68.67;150711.59;5006141;28;20237;-56
2023/10/08 09:56:15;;;;;;;8.87;3.70;;;;;;;18.85;66.13;150782.94;5002437;28;20288;-56
2023/10/08 09:58:42;;;;;;;8.57;3.23;;;;;;;19.05;63.07;150829.34;5001001;28;20234;-57
2023/10/08 10:01:10;;;;;;;8.23;3.20;;;;;;;19.25;61.00;150879.38;5006564;28;20232;-56
2023/10/08 10:03:41;;;;;;;6.93;3.53;;;;;;;19.42;57.58;150920.72;5005977;28;20235;-54
2023/10/08 10:06:14;;;;;;;9.63;3.30;;;;;;;19.61;54.26;150965.75;5007765;28;20329;-57
2023/10/08 10:08:42;;;;;;;8.70;3.83;;;;;;;19.59;53.70;150960.81;5005934;28;20321;-56
2023/10/08 10:11:10;;;;;;;7.60;2.90;;;;;;;19.65;53.46;150974.56;5007681;28;20234;-56
2023/10/08 10:13:40;;;;;;;8.23;3.63;;;;;;;19.82;54.00;151017.13;5003770;28;20266;-55
2023/10/08 10:16:07;;;;;;;8.93;3.40;;;;;;;19.91;52.45;151039.75;5006545;28;20234;-57
2023/10/08 10:18:34;;;;;;;10.77;3.73;;;;;;;19.99;52.09;151057.28;5004234;28;20239;-57
2023/10/08 10:21:27;;;;;;;9.83;3.40;;;;;;;20.14;51.29;151093.59;5007242;28;20223;-56
2023/10/08 10:23:54;;;;;;;11.10;3.13;;;;;;;20.21;51.88;151112.34;4997759;28;20224;-57
2023/10/08 10:26:27;;;;;;;7.67;3.60;;;;;;;20.18;52.69;151104.84;5001188;28;20239;-56
2023/10/08 10:29:25;;;;;;;8.40;3.70;;;;;;;20.19;51.86;151106.09;5005688;28;20248;-55
2023/10/08 10:31:54;;;;;;;10.37;3.67;;;;;;;20.10;52.24;151084.84;5002738;28;20230;-55
2023/10/08 10:34:22;;;;;;;9.73;4.00;;;;;;;20.17;52.23;151102.31;5007301;28;20725;-55
2023/10/08 10:36:56;;;;;;;10.30;3.80;;;;;;;20.25;52.29;151119.88;5016042;28;20562;-55
2023/10/08 10:39:30;;;;;;;11.37;3.53;;;;;;;20.35;52.56;151146.19;5007908;28;20235;-54
2023/10/08 10:42:01;;;;;;;9.10;3.90;;;;;;;20.53;53.55;151188.81;4997398;28;20274;-56
2023/10/08 10:44:29;;;;;;;9.00;3.60;;;;;;;20.59;53.27;151202.56;5001991;28;20690;-56
2023/10/08 10:49:47;;;;;;;7.90;3.20;;;;;;;20.64;51.76;151215.09;4994390;28;20242;-55
2023/10/08 10:52:26;;;;;;;10.00;3.50;;;;;;;20.62;51.56;151211.38;4996873;28;20240;-53
2023/10/08 10:54:58;;;;;;;8.00;3.40;;;;;;;20.73;50.18;151237.66;5002250;28;20245;-53
2023/10/08 10:57:34;;;;;;;7.20;3.57;;;;;;;20.94;50.27;151287.84;5006595;28;21601;-54
2023/10/08 11:00:27;;;;;;;12.57;3.17;;;;;;;21.07;48.23;151320.44;4993745;28;20233;-54
2023/10/08 11:02:56;;;;;;;14.10;3.57;;;;;;;21.11;48.34;151327.94;4985598;28;20240;-55
2023/10/08 11:05:28;;;;;;;8.97;3.37;;;;;;;21.31;47.14;151376.81;4989467;28;20235;-54
2023/10/08 11:08:04;;;;;;;7.03;2.97;;;;;;;21.43;47.46;151405.63;5002363;28;20834;-55
2023/10/08 11:10:31;;;;;;;8.47;3.33;;;;;;;21.47;47.92;151415.66;4995078;28;20699;-54
2023/10/08 11:13:01;;;;;;;12.47;3.40;;;;;;;21.57;46.61;151439.50;4992615;28;20631;-56
2023/10/08 11:15:37;;;;;;;8.33;3.07;;;;;;;21.61;46.23;151450.75;4994372;28;20229;-55
2023/10/08 11:18:09;;;;;;;9.60;2.80;;;;;;;21.62;44.85;151453.31;4991804;28;20857;-55
2023/10/08 11:20:39;;;;;;;8.27;3.00;;;;;;;21.56;45.96;151438.22;4982668;28;20294;-55
2023/10/08 11:23:18;;;;;;;9.70;3.67;;;;;;;21.70;46.04;151470.88;4987157;28;20314;-54
2023/10/08 11:25:53;;;;;;;10.50;3.00;;;;;;;21.69;45.26;151469.66;4984648;28;20306;-55
2023/10/08 11:28:20;;;;;;;9.27;3.63;;;;;;;21.74;45.22;151480.91;4989043;28;20248;-54
2023/10/08 11:30:51;;;;;;;7.47;3.10;;;;;;;21.75;46.56;151484.66;4983644;28;23524;-54
2023/10/08 11:33:18;;;;;;;5.83;3.40;;;;;;;21.83;46.39;151503.47;4986635;28;20321;-54
2023/10/08 11:35:58;;;;;;;7.23;3.03;;;;;;;22.05;46.14;151556.16;4983335;28;20248;-55
2023/10/08 11:38:27;;;;;;;11.40;3.40;;;;;;;22.24;44.53;151603.81;4986440;28;20636;-55
2023/10/08 11:40:57;;;;;;;9.00;3.17;;;;;;;22.21;43.60;151596.28;5002830;28;20324;-56
2023/10/08 11:43:24;;;;;;;9.70;3.77;;;;;;;22.33;43.02;151625.13;5005231;28;20235;-54
2023/10/08 11:45:51;;;;;;;10.07;3.10;;;;;;;22.45;42.79;151653.97;4999810;28;20234;-53
2023/10/08 11:48:25;;;;;;;11.40;3.77;;;;;;;22.68;40.24;151710.47;5003166;28;20275;-56
2023/10/08 11:50:52;;;;;;;7.43;3.93;;;;;;;22.68;37.55;151710.47;5002729;28;20230;-56
2023/10/08 11:53:20;;;;;;;6.67;3.77;;;;;;;22.96;38.45;151778.16;5005931;28;20243;-55
2023/10/08 11:55:48;;;;;;;6.20;3.43;;;;;;;23.21;40.89;151837.16;5004744;28;20244;-55
2023/10/08 11:58:19;;;;;;;6.90;3.70;;;;;;;23.34;39.10;151869.78;5007938;28;20234;-56
2023/10/08 12:00:52;;;;;;;7.60;3.43;;;;;;;23.36;39.23;151874.81;5001754;28;20722;-55
2023/10/08 12:03:19;;;;;;;11.07;3.77;;;;;;;23.56;36.48;151923.78;5005769;28;20244;-55
2023/10/08 12:05:48;;;;;;;12.23;3.80;;;;;;;23.57;37.13;151925.03;5002185;28;20223;-55
2023/10/08 12:08:16;;;;;;;8.17;3.80;;;;;;;23.58;37.91;151928.81;5003687;28;20246;-55